Time;durP1;ratioP1;P1;durP2;ratioP2;P2;SDS_P1;SDS_P2;PMS_P1;PMS_P2;Temp;Humidity;BMP_temperature;BMP_pressure;BME280_temperature;BME280_humidity;BME280_pressure;Samples;Min_cycle;Max_cycle;Signal;HPM_P1;HPM_P2
2022/01/09 00:00:11;;;;;;;2.30;2.10;;;6.60;89.50;;;;;;4991122;28;20077;-87
2022/01/09 00:02:38;;;;;;;2.20;2.00;;;6.70;89.40;;;;;;4994866;28;20022;-89
2022/01/09 00:05:05;;;;;;;2.08;1.95;;;6.70;89.30;;;;;;4987022;28;20026;-84
2022/01/09 00:07:30;;;;;;;1.80;1.70;;;6.80;89.30;;;;;;4987037;28;20031;-85
2022/01/09 00:09:56;;;;;;;1.90;1.80;;;6.80;89.20;;;;;;4993960;28;20407;-85
2022/01/09 00:12:25;;;;;;;2.10;1.90;;;6.90;89.10;;;;;;4982062;28;20023;-81
2022/01/09 00:14:52;;;;;;;1.80;1.70;;;7.00;89.10;;;;;;4989549;28;20034;-82
2022/01/09 00:17:18;;;;;;;1.60;1.50;;;7.10;89.00;;;;;;4984483;28;20547;-83
2022/01/09 00:19:44;;;;;;;2.72;1.92;;;7.20;88.60;;;;;;4985337;28;20114;-84
2022/01/09 00:22:10;;;;;;;1.70;1.60;;;7.20;88.30;;;;;;4980323;28;20438;-82
2022/01/09 00:24:35;;;;;;;1.80;1.70;;;7.10;88.20;;;;;;4983295;28;20030;-82
2022/01/09 00:27:01;;;;;;;1.95;1.83;;;7.10;88.20;;;;;;4989820;28;20022;-83
2022/01/09 00:29:26;;;;;;;2.55;2.08;;;7.10;88.20;;;;;;4980432;28;20052;-82
2022/01/09 00:31:52;;;;;;;2.05;1.90;;;7.10;88.30;;;;;;4993256;28;20022;-81
2022/01/09 00:34:17;;;;;;;2.75;2.30;;;7.10;88.40;;;;;;4980196;28;20133;-82
2022/01/09 00:36:43;;;;;;;2.00;1.80;;;7.10;88.30;;;;;;4987153;28;20030;-82
2022/01/09 00:39:08;;;;;;;1.95;1.80;;;7.20;88.40;;;;;;4983628;28;20027;-83
2022/01/09 00:41:34;;;;;;;2.30;2.10;;;7.20;88.30;;;;;;4980968;28;20077;-83
2022/01/09 00:43:59;;;;;;;2.58;2.38;;;7.20;88.20;;;;;;4984309;28;20574;-82
2022/01/09 00:46:25;;;;;;;2.40;2.20;;;7.10;88.00;;;;;;4980680;28;20015;-83
2022/01/09 00:48:51;;;;;;;2.30;2.10;;;7.10;87.90;;;;;;4992458;28;20028;-82
2022/01/09 00:51:16;;;;;;;2.10;1.90;;;7.10;87.90;;;;;;4987488;28;20034;-82
2022/01/09 00:53:42;;;;;;;2.00;1.90;;;7.10;87.90;;;;;;4993439;28;20124;-82
2022/01/09 00:56:07;;;;;;;3.08;2.20;;;7.10;87.90;;;;;;4989440;28;20081;-82
2022/01/09 00:58:33;;;;;;;2.17;1.90;;;7.10;88.00;;;;;;4985374;28;20041;-81
2022/01/09 01:00:59;;;;;;;2.50;2.30;;;7.20;87.90;;;;;;4992201;28;20029;-81
2022/01/09 01:03:25;;;;;;;2.78;2.17;;;7.20;87.70;;;;;;5002044;28;20022;-82
2022/01/09 01:05:51;;;;;;;3.10;2.80;;;7.10;87.50;;;;;;4994923;28;20477;-83
2022/01/09 01:08:17;;;;;;;2.70;2.50;;;7.00;87.40;;;;;;5002816;28;20385;-84
2022/01/09 01:10:43;;;;;;;2.67;2.10;;;6.90;87.40;;;;;;4995517;28;20046;-84
2022/01/09 01:13:09;;;;;;;2.45;2.25;;;6.90;87.60;;;;;;5000297;28;20037;-84
2022/01/09 01:15:35;;;;;;;1.98;1.83;;;6.90;87.70;;;;;;4993961;28;20511;-84
2022/01/09 01:18:00;;;;;;;2.47;2.20;;;6.90;87.90;;;;;;5008601;28;20022;-83
2022/01/09 01:20:27;;;;;;;2.72;2.30;;;6.90;87.80;;;;;;4990334;28;20042;-84
2022/01/09 01:22:53;;;;;;;2.20;2.10;;;6.90;87.80;;;;;;4995459;28;20021;-84
2022/01/09 01:25:20;;;;;;;2.10;2.00;;;6.90;87.80;;;;;;4999917;28;20034;-82
2022/01/09 01:27:45;;;;;;;1.63;1.52;;;6.90;87.90;;;;;;5003976;28;20068;-82
2022/01/09 01:30:12;;;;;;;2.10;1.90;;;7.00;88.00;;;;;;5005909;28;20030;-83
2022/01/09 01:32:39;;;;;;;2.05;1.95;;;7.10;88.00;;;;;;5000903;28;20062;-83
2022/01/09 01:35:05;;;;;;;2.40;2.20;;;7.10;87.80;;;;;;4998437;28;20042;-83
2022/01/09 01:37:31;;;;;;;1.92;1.80;;;7.10;87.80;;;;;;4998591;28;20113;-83
2022/01/09 01:39:56;;;;;;;1.80;1.70;;;7.10;87.90;;;;;;4988303;28;20033;-84
2022/01/09 01:42:22;;;;;;;1.50;1.40;;;7.10;87.90;;;;;;5012711;28;20042;-83
2022/01/09 01:44:49;;;;;;;1.65;1.35;;;7.10;87.80;;;;;;5001815;28;20034;-83
2022/01/09 01:47:17;;;;;;;1.60;1.50;;;7.20;87.90;;;;;;4993766;28;20392;-83
2022/01/09 01:49:43;;;;;;;3.67;1.50;;;7.20;87.90;;;;;;4994157;28;20022;-84
2022/01/09 01:52:10;;;;;;;5.63;1.85;;;7.10;87.90;;;;;;4996801;28;20026;-84
2022/01/09 01:54:35;;;;;;;7.68;2.13;;;7.10;87.90;;;;;;4995531;28;20042;-84
2022/01/09 01:57:03;;;;;;;6.38;1.88;;;7.00;87.90;;;;;;5000734;28;20373;-84
2022/01/09 01:59:29;;;;;;;9.85;2.25;;;7.00;88.00;;;;;;4991447;28;20034;-84
2022/01/09 02:01:54;;;;;;;10.23;2.30;;;7.00;88.00;;;;;;4997609;28;20018;-83
2022/01/09 02:04:20;;;;;;;11.05;2.50;;;7.00;88.10;;;;;;4997835;28;20113;-86
2022/01/09 02:06:46;;;;;;;12.20;2.40;;;7.00;88.10;;;;;;4996844;28;20058;-85
2022/01/09 02:09:12;;;;;;;7.05;2.13;;;7.00;88.20;;;;;;4993938;28;20172;-85
2022/01/09 02:11:38;;;;;;;6.80;2.20;;;7.00;88.20;;;;;;5002728;28;20026;-85
2022/01/09 02:14:03;;;;;;;11.50;2.40;;;7.10;88.30;;;;;;4997714;28;20046;-83
2022/01/09 02:16:29;;;;;;;11.32;2.20;;;7.10;88.20;;;;;;5002674;28;20380;-86
2022/01/09 02:18:58;;;;;;;10.65;2.35;;;7.00;88.20;;;;;;4990186;28;20045;-84
2022/01/09 02:21:25;;;;;;;8.77;2.13;;;7.10;88.30;;;;;;4982878;28;20035;-84
2022/01/09 02:23:51;;;;;;;8.63;2.28;;;7.20;88.30;;;;;;4998743;28;20485;-84
2022/01/09 02:26:24;;;;;;;10.23;2.75;;;7.20;88.30;;;;;;5001792;28;20076;-85
2022/01/09 02:28:50;;;;;;;13.60;2.97;;;7.20;88.40;;;;;;4994224;28;20032;-85
2022/01/09 02:31:16;;;;;;;12.90;2.60;;;7.20;88.50;;;;;;4991569;28;20495;-85
2022/01/09 02:33:42;;;;;;;13.43;2.75;;;7.20;88.50;;;;;;4997833;28;20038;-84
2022/01/09 02:36:08;;;;;;;13.80;2.70;;;7.30;88.60;;;;;;4993526;28;20080;-83
2022/01/09 02:38:33;;;;;;;12.85;3.15;;;7.30;88.60;;;;;;4990068;28;20026;-82
2022/01/09 02:40:59;;;;;;;13.55;3.03;;;7.40;88.60;;;;;;4998615;28;20029;-84
2022/01/09 02:43:24;;;;;;;15.70;2.97;;;7.40;88.60;;;;;;5002364;28;20087;-85
2022/01/09 02:46:05;;;;;;;13.02;2.97;;;7.40;88.60;;;;;;4990876;28;20091;-84
2022/01/09 02:48:34;;;;;;;19.33;3.47;;;7.40;88.70;;;;;;4992170;28;20030;-85
2022/01/09 02:51:07;;;;;;;19.42;3.85;;;7.40;88.70;;;;;;4999074;28;20018;-85
2022/01/09 02:53:37;;;;;;;;;;;7.40;88.70;;;;;;5002603;28;20026;-87
2022/01/09 02:56:04;;;;;;;13.23;2.60;;;7.50;88.70;;;;;;4992786;28;19920;-87
2022/01/09 02:58:30;;;;;;;18.90;3.53;;;7.50;88.70;;;;;;4996498;28;20033;-87
2022/01/09 03:00:55;;;;;;;18.38;4.15;;;7.50;88.70;;;;;;4995634;28;20397;-87
2022/01/09 03:03:21;;;;;;;12.68;3.15;;;7.50;88.70;;;;;;4998006;28;20042;-85
2022/01/09 03:05:46;;;;;;;14.70;2.90;;;7.50;88.80;;;;;;5001480;28;20380;-83
2022/01/09 03:08:12;;;;;;;9.93;2.53;;;7.50;88.70;;;;;;4998398;28;20053;-84
2022/01/09 03:10:38;;;;;;;12.35;2.92;;;7.60;88.80;;;;;;4994269;28;20039;-85
2022/01/09 03:13:06;;;;;;;13.30;2.65;;;7.60;88.70;;;;;;4990903;28;20077;-84
2022/01/09 03:15:33;;;;;;;14.43;3.05;;;7.60;88.60;;;;;;4996309;28;20042;-83
2022/01/09 03:17:59;;;;;;;12.65;3.17;;;7.60;88.60;;;;;;5000038;28;20028;-84
2022/01/09 03:20:26;;;;;;;13.30;2.95;;;7.60;88.60;;;;;;4985988;28;20069;-85
2022/01/09 03:22:53;;;;;;;11.82;2.92;;;7.60;88.50;;;;;;4988970;28;20026;-85
2022/01/09 03:25:19;;;;;;;10.15;2.38;;;7.60;88.50;;;;;;5005371;28;20606;-85
2022/01/09 03:27:46;;;;;;;15.68;2.83;;;7.70;88.60;;;;;;4992038;28;20026;-84
2022/01/09 03:30:12;;;;;;;14.63;3.45;;;7.70;88.50;;;;;;4988771;28;20065;-83
2022/01/09 03:32:39;;;;;;;21.40;3.80;;;7.70;88.40;;;;;;4998056;28;20113;-80
2022/01/09 03:35:06;;;;;;;13.77;2.63;;;7.70;88.30;;;;;;4993068;28;20034;-81
2022/01/09 03:37:32;;;;;;;14.38;3.13;;;7.70;88.30;;;;;;4992938;28;20026;-81
2022/01/09 03:39:57;;;;;;;13.23;3.17;;;7.70;88.30;;;;;;4997648;28;20032;-82
2022/01/09 03:42:23;;;;;;;12.57;2.88;;;7.70;88.30;;;;;;4992185;28;20035;-82
2022/01/09 03:44:49;;;;;;;10.32;2.40;;;7.70;88.30;;;;;;4992379;28;20030;-83
2022/01/09 03:47:14;;;;;;;12.27;2.85;;;7.70;88.20;;;;;;4992469;28;20486;-82
2022/01/09 03:49:39;;;;;;;11.18;2.75;;;7.70;88.20;;;;;;4994087;28;20038;-82
2022/01/09 03:52:05;;;;;;;14.18;3.08;;;7.70;88.20;;;;;;4998087;28;20018;-83
2022/01/09 03:54:31;;;;;;;14.38;2.90;;;7.70;88.20;;;;;;4986363;28;20553;-84
2022/01/09 03:56:56;;;;;;;13.13;2.80;;;7.70;88.10;;;;;;4986424;28;20019;-83
2022/01/09 03:59:23;;;;;;;12.23;2.92;;;7.60;88.00;;;;;;4989796;28;20062;-83
2022/01/09 04:01:48;;;;;;;13.63;3.10;;;7.60;88.10;;;;;;4999762;28;20123;-85
2022/01/09 04:04:14;;;;;;;17.20;3.17;;;7.60;88.10;;;;;;4995314;28;20082;-84
2022/01/09 04:06:45;;;;;;;10.65;3.00;;;7.50;88.00;;;;;;4999453;28;20033;-84
2022/01/09 04:09:18;;;;;;;8.43;2.75;;;7.50;88.00;;;;;;4996686;28;20112;-84
2022/01/09 04:11:45;;;;;;;11.90;2.90;;;7.50;88.10;;;;;;4999353;28;20053;-83
2022/01/09 04:14:11;;;;;;;10.45;2.47;;;7.50;88.00;;;;;;4998855;28;20045;-84
2022/01/09 04:16:37;;;;;;;10.57;2.42;;;7.50;87.90;;;;;;4994313;28;20035;-84
2022/01/09 04:19:02;;;;;;;11.85;2.60;;;7.60;88.00;;;;;;4991212;28;20023;-85
2022/01/09 04:21:28;;;;;;;14.73;2.92;;;7.50;87.80;;;;;;4994874;28;20088;-84
2022/01/09 04:23:53;;;;;;;12.70;2.83;;;7.60;87.80;;;;;;4999861;28;20492;-84
2022/01/09 04:26:21;;;;;;;11.90;2.60;;;7.50;87.70;;;;;;4992173;28;20042;-82
2022/01/09 04:28:47;;;;;;;10.52;2.72;;;7.50;87.70;;;;;;4996587;28;20795;-83
2022/01/09 04:31:13;;;;;;;9.20;2.63;;;7.50;87.70;;;;;;5006511;28;20037;-82
2022/01/09 04:33:40;;;;;;;12.13;3.28;;;7.60;87.70;;;;;;5003149;28;20432;-84
2022/01/09 04:36:06;;;;;;;10.27;2.50;;;7.50;87.50;;;;;;4989683;28;20035;-84
2022/01/09 04:38:31;;;;;;;14.60;3.08;;;7.50;87.50;;;;;;4996300;28;20019;-84
2022/01/09 04:40:57;;;;;;;6.85;2.22;;;7.50;87.50;;;;;;5001458;28;20041;-82
2022/01/09 04:43:22;;;;;;;12.13;2.90;;;7.50;87.50;;;;;;4998871;28;20026;-83
2022/01/09 04:45:49;;;;;;;10.55;2.63;;;7.50;87.30;;;;;;4999796;28;20030;-82
2022/01/09 04:48:15;;;;;;;11.35;2.20;;;7.40;87.30;;;;;;5003970;28;20018;-83
2022/01/09 04:50:43;;;;;;;12.65;2.88;;;7.40;87.30;;;;;;4994875;28;20032;-87
2022/01/09 04:53:09;;;;;;;9.15;2.42;;;7.40;87.30;;;;;;4992986;28;20029;-83
2022/01/09 04:55:42;;;;;;;11.02;2.85;;;7.50;87.30;;;;;;4992915;28;20027;-83
2022/01/09 04:58:08;;;;;;;;;;;7.50;87.10;;;;;;4994497;28;20026;-83
2022/01/09 05:00:34;;;;;;;9.63;2.22;;;7.50;87.00;;;;;;4992372;28;19997;-83
2022/01/09 05:03:00;;;;;;;15.70;3.42;;;7.50;87.00;;;;;;4987206;28;20488;-83
2022/01/09 05:05:25;;;;;;;9.43;2.55;;;7.40;86.70;;;;;;4991408;28;20038;-84
2022/01/09 05:07:51;;;;;;;11.43;2.70;;;7.40;86.80;;;;;;4994572;28;20501;-82
2022/01/09 05:10:17;;;;;;;12.93;2.65;;;7.40;86.70;;;;;;4993648;28;20591;-84
2022/01/09 05:12:42;;;;;;;10.25;2.40;;;7.40;86.60;;;;;;4997724;28;20037;-84
2022/01/09 05:15:09;;;;;;;13.30;3.10;;;7.30;86.50;;;;;;5003981;28;20050;-84
2022/01/09 05:17:35;;;;;;;8.70;1.92;;;7.40;86.50;;;;;;4999629;28;20623;-84
2022/01/09 05:20:00;;;;;;;12.15;2.08;;;7.40;86.60;;;;;;4990538;28;20106;-84
2022/01/09 05:22:30;;;;;;;11.10;2.47;;;7.40;86.50;;;;;;4994313;28;20629;-83
2022/01/09 05:24:58;;;;;;;9.20;3.17;;;7.40;86.40;;;;;;4988353;28;20030;-82
2022/01/09 05:27:25;;;;;;;9.05;2.60;;;7.40;86.30;;;;;;4992071;28;20030;-83
2022/01/09 05:29:51;;;;;;;6.97;2.17;;;7.40;86.30;;;;;;4994283;28;20026;-84
2022/01/09 05:32:17;;;;;;;11.65;2.13;;;7.40;86.20;;;;;;4998659;28;20034;-83
2022/01/09 05:34:43;;;;;;;10.50;2.38;;;7.40;86.20;;;;;;5000753;28;20042;-83
2022/01/09 05:37:08;;;;;;;11.57;2.97;;;7.30;85.90;;;;;;4995341;28;20044;-83
2022/01/09 05:39:34;;;;;;;13.25;2.35;;;7.30;85.90;;;;;;4992287;28;20038;-83
2022/01/09 05:42:03;;;;;;;7.90;2.30;;;7.30;85.90;;;;;;4996390;28;20026;-83
2022/01/09 05:44:28;;;;;;;14.18;2.55;;;7.30;85.80;;;;;;4997784;28;20030;-83
2022/01/09 05:46:54;;;;;;;13.27;2.95;;;7.30;85.80;;;;;;5004616;28;20022;-83
2022/01/09 05:49:19;;;;;;;10.45;2.42;;;7.30;85.80;;;;;;5004904;28;20033;-82
2022/01/09 05:51:45;;;;;;;12.25;3.00;;;7.30;85.60;;;;;;5000678;28;20034;-82
2022/01/09 05:54:11;;;;;;;9.32;2.47;;;7.30;85.60;;;;;;4991382;28;20038;-82
2022/01/09 05:56:37;;;;;;;8.32;1.83;;;7.30;85.50;;;;;;4991075;28;20027;-82
2022/01/09 05:59:02;;;;;;;6.90;1.67;;;7.30;85.50;;;;;;4995663;28;20084;-83
2022/01/09 06:01:28;;;;;;;10.38;2.70;;;7.30;85.50;;;;;;4996606;28;20101;-84
2022/01/09 06:03:53;;;;;;;5.82;2.00;;;7.20;85.40;;;;;;4990936;28;20037;-84
2022/01/09 06:06:19;;;;;;;11.30;2.20;;;7.20;85.30;;;;;;5006124;28;20030;-84
2022/01/09 06:08:45;;;;;;;8.32;2.15;;;7.20;85.40;;;;;;4998270;28;20027;-80
2022/01/09 06:11:10;;;;;;;8.57;1.85;;;7.20;85.30;;;;;;4991944;28;20393;-83
2022/01/09 06:13:36;;;;;;;10.57;2.40;;;7.30;85.40;;;;;;4996900;28;21446;-82
2022/01/09 06:16:03;;;;;;;9.98;3.03;;;7.30;85.20;;;;;;4990129;28;20114;-83
2022/01/09 06:18:29;;;;;;;6.20;1.80;;;7.30;85.10;;;;;;4992919;28;20032;-83
2022/01/09 06:20:55;;;;;;;8.82;2.28;;;7.30;85.10;;;;;;4983506;28;20057;-83
2022/01/09 06:23:21;;;;;;;7.57;2.00;;;7.30;85.00;;;;;;4989869;28;20053;-82
2022/01/09 06:25:48;;;;;;;10.63;2.10;;;7.20;85.00;;;;;;4998706;28;20030;-83
2022/01/09 06:28:14;;;;;;;11.15;2.38;;;7.30;85.10;;;;;;5002057;28;20110;-83
2022/01/09 06:30:41;;;;;;;10.55;2.53;;;7.30;85.10;;;;;;4996156;28;20384;-83
2022/01/09 06:33:06;;;;;;;6.93;1.80;;;7.30;85.10;;;;;;5003342;28;20045;-83
2022/01/09 06:35:32;;;;;;;8.68;1.95;;;7.30;85.10;;;;;;5001092;28;20505;-83
2022/01/09 06:37:57;;;;;;;5.97;2.10;;;7.30;85.00;;;;;;4994213;28;20049;-84
2022/01/09 06:40:23;;;;;;;7.63;2.03;;;7.40;85.10;;;;;;4998818;28;20097;-84
2022/01/09 06:42:48;;;;;;;6.93;1.80;;;7.40;85.00;;;;;;4990682;28;20600;-83
2022/01/09 06:45:14;;;;;;;7.20;1.90;;;7.30;84.80;;;;;;4983305;28;20026;-84
2022/01/09 06:47:39;;;;;;;7.97;2.13;;;7.30;84.80;;;;;;4997248;28;20621;-84
2022/01/09 06:50:06;;;;;;;7.47;1.83;;;7.30;84.60;;;;;;5001731;28;20103;-84
2022/01/09 06:52:32;;;;;;;7.25;2.10;;;7.30;84.70;;;;;;5001157;28;20033;-85
2022/01/09 06:54:57;;;;;;;6.07;1.60;;;7.20;84.60;;;;;;4998252;28;20034;-85
2022/01/09 06:57:23;;;;;;;7.43;2.08;;;7.20;84.60;;;;;;4996462;28;20095;-84
2022/01/09 06:59:48;;;;;;;7.45;1.80;;;7.20;84.50;;;;;;5000899;28;20389;-84
2022/01/09 07:02:14;;;;;;;6.50;2.28;;;7.20;84.50;;;;;;4993025;28;20042;-84
2022/01/09 07:04:39;;;;;;;7.95;2.35;;;7.20;84.40;;;;;;4998716;28;20034;-84
2022/01/09 07:07:05;;;;;;;5.80;1.73;;;7.10;84.30;;;;;;4993661;28;20018;-84
2022/01/09 07:09:30;;;;;;;8.40;1.98;;;7.10;84.40;;;;;;4999356;28;20030;-84
2022/01/09 07:11:56;;;;;;;8.10;2.20;;;7.10;84.40;;;;;;4999956;28;20026;-84
2022/01/09 07:14:21;;;;;;;5.43;1.75;;;7.10;84.40;;;;;;4991698;28;20081;-83
2022/01/09 07:16:47;;;;;;;9.98;1.92;;;7.10;84.40;;;;;;5000413;28;20038;-84
2022/01/09 07:19:12;;;;;;;6.32;1.70;;;7.10;84.30;;;;;;4996516;28;20038;-84
2022/01/09 07:21:38;;;;;;;7.68;2.00;;;7.10;84.40;;;;;;4986578;28;20031;-84
2022/01/09 07:24:04;;;;;;;4.47;1.70;;;7.00;84.30;;;;;;5001494;28;20057;-84
2022/01/09 07:26:30;;;;;;;5.32;1.73;;;7.00;84.20;;;;;;4999009;28;20381;-85
2022/01/09 07:28:55;;;;;;;4.47;1.63;;;7.00;84.40;;;;;;5002000;28;20026;-84
2022/01/09 07:31:21;;;;;;;7.78;1.85;;;7.10;84.40;;;;;;4996343;28;20384;-82
2022/01/09 07:33:46;;;;;;;10.23;2.22;;;7.00;84.20;;;;;;4993451;28;20109;-84
2022/01/09 07:36:12;;;;;;;6.03;1.80;;;7.00;84.10;;;;;;4990793;28;20030;-84
2022/01/09 07:38:37;;;;;;;4.63;1.75;;;7.10;84.30;;;;;;4988343;28;20026;-82
2022/01/09 07:41:03;;;;;;;6.70;2.03;;;7.10;84.20;;;;;;4999638;28;20057;-83
2022/01/09 07:43:28;;;;;;;7.75;2.08;;;7.10;84.10;;;;;;4999376;28;20483;-83
2022/01/09 07:45:54;;;;;;;9.70;1.95;;;7.10;84.00;;;;;;5000068;28;20030;-84
2022/01/09 07:48:23;;;;;;;7.10;1.83;;;7.10;84.00;;;;;;5000468;28;20816;-84
2022/01/09 07:50:49;;;;;;;4.57;1.52;;;7.10;84.00;;;;;;4995753;28;20018;-83
2022/01/09 07:53:17;;;;;;;7.32;1.95;;;7.20;84.00;;;;;;4989595;28;20030;-86
2022/01/09 07:55:43;;;;;;;4.57;1.60;;;7.10;83.90;;;;;;4987723;28;20091;-83
2022/01/09 07:58:08;;;;;;;6.25;1.88;;;7.10;84.00;;;;;;5001406;28;20026;-84
2022/01/09 08:00:34;;;;;;;7.32;2.08;;;7.10;84.00;;;;;;4997821;28;20038;-83
2022/01/09 08:02:59;;;;;;;5.35;2.00;;;7.10;83.90;;;;;;4998570;28;20428;-84
2022/01/09 08:05:25;;;;;;;6.07;1.80;;;7.10;84.00;;;;;;4988893;28;20386;-84
2022/01/09 08:07:50;;;;;;;5.15;1.70;;;7.10;84.10;;;;;;4990517;28;20026;-83
2022/01/09 08:10:16;;;;;;;5.68;1.50;;;7.10;84.10;;;;;;4990234;28;20481;-82
2022/01/09 08:12:42;;;;;;;4.93;1.77;;;7.10;84.00;;;;;;5000268;28;20113;-85
2022/01/09 08:15:07;;;;;;;4.78;1.42;;;7.10;84.00;;;;;;4996686;28;20120;-84
2022/01/09 08:17:33;;;;;;;6.93;2.10;;;7.20;84.00;;;;;;4998871;28;20446;-85
2022/01/09 08:19:59;;;;;;;4.80;1.70;;;7.20;84.00;;;;;;4997023;28;20063;-85
2022/01/09 08:22:29;;;;;;;8.10;1.90;;;7.20;84.50;;;;;;4981225;28;20389;-85
2022/01/09 08:24:55;;;;;;;6.03;1.92;;;7.10;83.60;;;;;;4990015;28;20069;-85
2022/01/09 08:27:21;;;;;;;4.25;1.80;;;7.10;83.50;;;;;;4990072;28;20085;-84
2022/01/09 08:29:47;;;;;;;3.92;1.63;;;7.00;83.50;;;;;;4991053;28;20022;-85
2022/01/09 08:32:13;;;;;;;6.00;1.70;;;7.00;83.60;;;;;;4990596;28;20036;-86
2022/01/09 08:34:39;;;;;;;5.88;1.90;;;7.00;83.50;;;;;;4994629;28;20117;-86
2022/01/09 08:37:11;;;;;;;4.00;1.48;;;7.00;83.60;;;;;;5000800;28;20702;-84
2022/01/09 08:39:38;;;;;;;5.60;1.50;;;7.00;83.40;;;;;;4997499;28;20049;-86
2022/01/09 08:42:03;;;;;;;4.82;1.80;;;7.00;83.40;;;;;;4991658;28;20322;-83
2022/01/09 08:44:29;;;;;;;6.88;1.67;;;7.00;83.50;;;;;;4984837;28;20034;-83
2022/01/09 08:46:54;;;;;;;9.02;2.03;;;7.00;83.40;;;;;;4988468;28;20052;-83
2022/01/09 08:49:20;;;;;;;6.80;1.60;;;6.90;83.20;;;;;;4988118;28;20395;-82
2022/01/09 08:51:45;;;;;;;6.93;1.90;;;6.90;83.20;;;;;;4985654;28;20058;-82
2022/01/09 08:54:11;;;;;;;5.35;1.60;;;6.90;83.40;;;;;;4985831;28;20092;-81
2022/01/09 08:56:38;;;;;;;5.30;1.75;;;6.90;83.40;;;;;;4989913;28;20073;-82
2022/01/09 08:59:04;;;;;;;3.47;1.35;;;6.90;83.40;;;;;;5003453;28;20029;-82
2022/01/09 09:01:29;;;;;;;5.50;1.55;;;6.90;83.30;;;;;;4996171;28;20038;-82
2022/01/09 09:03:55;;;;;;;8.13;1.65;;;6.90;83.20;;;;;;4990180;28;20541;-82
2022/01/09 09:06:20;;;;;;;4.70;1.48;;;6.90;83.10;;;;;;4988503;28;20076;-82
2022/01/09 09:08:46;;;;;;;7.25;1.70;;;6.90;83.10;;;;;;4989489;28;20084;-82
2022/01/09 09:11:12;;;;;;;7.30;1.70;;;6.90;83.10;;;;;;4980355;28;20433;-82
2022/01/09 09:13:38;;;;;;;6.28;1.60;;;6.90;83.10;;;;;;4982606;28;20037;-83
2022/01/09 09:16:05;;;;;;;5.63;1.90;;;6.90;83.10;;;;;;4990408;28;20030;-84
2022/01/09 09:18:31;;;;;;;3.88;1.58;;;6.90;83.10;;;;;;4993290;28;20030;-84
2022/01/09 09:20:57;;;;;;;3.53;1.33;;;6.90;83.10;;;;;;4989667;28;20030;-83
2022/01/09 09:23:23;;;;;;;5.50;1.90;;;7.00;83.10;;;;;;4991503;28;20033;-81
2022/01/09 09:25:48;;;;;;;5.85;1.95;;;7.00;83.00;;;;;;4996617;28;20030;-82
2022/01/09 09:28:14;;;;;;;5.55;1.88;;;7.00;82.80;;;;;;4994314;28;20033;-82
2022/01/09 09:30:41;;;;;;;6.85;2.35;;;7.00;82.50;;;;;;5001007;28;20034;-81
2022/01/09 09:33:06;;;;;;;5.78;1.90;;;7.00;82.40;;;;;;4984311;28;20053;-82
2022/01/09 09:35:33;;;;;;;7.55;2.05;;;6.90;82.30;;;;;;4983678;28;20030;-80
2022/01/09 09:37:59;;;;;;;4.65;1.40;;;7.00;82.30;;;;;;4986002;28;20418;-82
2022/01/09 09:40:25;;;;;;;4.88;1.75;;;6.90;82.40;;;;;;4981954;28;20054;-82
2022/01/09 09:42:51;;;;;;;6.07;1.65;;;6.90;82.40;;;;;;4986000;28;20105;-82
2022/01/09 09:45:17;;;;;;;6.55;2.00;;;6.90;82.60;;;;;;4985008;28;20106;-82
2022/01/09 09:47:43;;;;;;;5.20;1.60;;;6.90;82.60;;;;;;4988970;28;20454;-81
2022/01/09 09:50:11;;;;;;;6.80;1.50;;;6.90;82.60;;;;;;4980175;28;20027;-82
2022/01/09 09:52:37;;;;;;;5.60;1.60;;;6.80;82.50;;;;;;4987153;28;20034;-81
2022/01/09 09:55:04;;;;;;;4.88;1.80;;;6.90;82.60;;;;;;4985261;28;20038;-82
2022/01/09 09:57:29;;;;;;;7.43;1.83;;;6.90;82.60;;;;;;4987239;28;20039;-81
2022/01/09 10:00:01;;;;;;;4.43;1.60;;;6.90;82.70;;;;;;4981317;28;20420;-81
2022/01/09 10:02:42;;;;;;;4.68;1.65;;;6.90;82.70;;;;;;4978982;28;20018;-81
2022/01/09 10:05:08;;;;;;;4.70;1.88;;;6.90;82.70;;;;;;4974402;28;20098;-81
2022/01/09 10:07:34;;;;;;;8.98;1.98;;;6.80;82.70;;;;;;4986746;28;20494;-81
2022/01/09 10:10:03;;;;;;;8.50;1.80;;;6.80;82.60;;;;;;4988202;28;20038;-81
2022/01/09 10:12:32;;;;;;;6.95;2.10;;;6.80;82.70;;;;;;4987225;28;20023;-81
2022/01/09 10:15:00;;;;;;;5.90;1.80;;;6.90;82.80;;;;;;4989232;28;20038;-81
2022/01/09 10:17:27;;;;;;;6.60;1.83;;;6.90;83.30;;;;;;4981733;28;20030;-82
2022/01/09 10:19:54;;;;;;;7.00;1.92;;;6.90;82.60;;;;;;4986686;28;20068;-82
2022/01/09 10:22:27;;;;;;;6.65;1.90;;;6.90;82.60;;;;;;4978245;28;20023;-81
2022/01/09 10:24:53;;;;;;;3.35;1.40;;;7.00;82.60;;;;;;4974478;28;20025;-84
2022/01/09 10:27:36;;;;;;;6.85;1.80;;;7.00;82.50;;;;;;4978428;28;20584;-81
2022/01/09 10:30:04;;;;;;;;;;;7.00;82.50;;;;;;4982490;28;20311;-83
2022/01/09 10:32:30;;;;;;;6.38;1.60;;;7.00;82.30;;;;;;4987327;28;20086;-82
2022/01/09 10:35:18;;;;;;;4.68;1.60;;;7.00;82.40;;;;;;4974701;28;20153;-83
2022/01/09 10:37:46;;;;;;;6.97;1.92;;;7.00;82.40;;;;;;4977486;28;20030;-89
2022/01/09 10:40:28;;;;;;;4.25;1.45;;;7.00;82.50;;;;;;4985494;28;20050;-84
2022/01/09 10:43:09;;;;;;;7.85;1.70;;;7.10;82.60;;;;;;4984851;28;20034;-83
2022/01/09 10:45:44;;;;;;;5.63;1.77;;;7.10;82.70;;;;;;4982720;28;20019;-83
2022/01/09 10:48:21;;;;;;;5.07;1.83;;;7.10;82.80;;;;;;4982133;28;20389;-83
2022/01/09 10:50:51;;;;;;;6.30;2.35;;;7.10;82.90;;;;;;4984129;28;20022;-83
2022/01/09 10:53:19;;;;;;;6.35;1.80;;;7.00;82.90;;;;;;4983755;28;20041;-83
2022/01/09 10:56:09;;;;;;;4.95;1.83;;;7.00;83.00;;;;;;4975537;28;20293;-80
2022/01/09 10:58:40;;;;;;;5.57;1.73;;;7.00;83.00;;;;;;4984511;28;20045;-81
2022/01/09 11:01:23;;;;;;;5.43;1.90;;;7.00;83.10;;;;;;4981754;28;20042;-80
2022/01/09 11:04:01;;;;;;;6.13;1.83;;;7.10;83.20;;;;;;4984500;28;20042;-83
2022/01/09 11:06:33;;;;;;;7.43;1.83;;;7.10;83.20;;;;;;4987424;28;20030;-82
2022/01/09 11:09:00;;;;;;;7.20;2.28;;;7.20;83.30;;;;;;4990986;28;20022;-81
2022/01/09 11:13:54;;;;;;;8.23;2.10;;;7.20;83.30;;;;;;4992517;28;20030;-82
2022/01/09 11:16:41;;;;;;;5.47;1.75;;;7.30;83.40;;;;;;4986857;28;20101;-83
2022/01/09 11:19:18;;;;;;;7.60;2.42;;;7.30;83.40;;;;;;4987880;28;20039;-82
2022/01/09 11:21:46;;;;;;;7.68;2.28;;;7.40;83.40;;;;;;4988571;28;20026;-82
2022/01/09 11:24:22;;;;;;;6.30;1.70;;;7.40;83.40;;;;;;4989317;28;20038;-82
2022/01/09 11:26:55;;;;;;;7.18;2.35;;;7.40;83.40;;;;;;4988038;28;20058;-81
2022/01/09 11:29:40;;;;;;;6.90;2.00;;;7.40;83.30;;;;;;4988975;28;20049;-82
2022/01/09 11:32:15;;;;;;;8.30;2.20;;;7.40;83.10;;;;;;4986640;28;20025;-82
2022/01/09 11:35:04;;;;;;;5.55;1.80;;;7.50;83.20;;;;;;4997200;28;20121;-82
2022/01/09 11:37:53;;;;;;;7.72;2.35;;;7.50;83.10;;;;;;4986946;28;20065;-82
2022/01/09 11:40:32;;;;;;;9.32;2.47;;;7.50;82.70;;;;;;4988818;28;20038;-82
2022/01/09 11:43:12;;;;;;;6.72;2.42;;;7.50;82.60;;;;;;4984322;28;20381;-82
2022/01/09 11:45:51;;;;;;;8.60;2.30;;;7.50;82.40;;;;;;4989101;28;20036;-83
2022/01/09 11:48:41;;;;;;;7.75;1.98;;;7.50;82.20;;;;;;5000842;28;20022;-83
2022/01/09 11:51:06;;;;;;;6.82;1.92;;;7.60;82.10;;;;;;4999751;28;20396;-84
2022/01/09 11:53:57;;;;;;;5.25;1.90;;;7.70;82.10;;;;;;4994267;28;20037;-84
2022/01/09 11:56:43;;;;;;;8.40;2.13;;;7.70;82.00;;;;;;5000880;28;20096;-85
2022/01/09 11:59:25;;;;;;;10.80;2.22;;;7.80;81.80;;;;;;5011350;28;20031;-84
2022/01/09 12:01:58;;;;;;;4.20;1.65;;;7.80;81.30;;;;;;4999329;28;20025;-85
2022/01/09 12:04:33;;;;;;;7.72;1.77;;;7.90;81.30;;;;;;5000110;28;20036;-84
2022/01/09 12:07:14;;;;;;;5.97;1.75;;;7.90;81.10;;;;;;4997364;28;20030;-83
2022/01/09 12:09:47;;;;;;;6.63;1.95;;;7.90;81.00;;;;;;4989139;28;20030;-84
2022/01/09 12:12:19;;;;;;;5.65;1.80;;;8.00;81.00;;;;;;4992193;28;20537;-84
2022/01/09 12:14:54;;;;;;;7.60;2.10;;;8.00;80.70;;;;;;4993114;28;20038;-83
2022/01/09 12:17:23;;;;;;;8.02;2.00;;;8.00;80.50;;;;;;4987932;28;20038;-84
2022/01/09 12:20:09;;;;;;;5.57;1.90;;;8.00;80.30;;;;;;4992913;28;20034;-83
2022/01/09 12:22:41;;;;;;;6.00;1.65;;;8.00;80.20;;;;;;4993582;28;20481;-81
2022/01/09 12:25:21;;;;;;;3.87;1.50;;;8.00;80.20;;;;;;4992428;28;20045;-81
2022/01/09 12:27:51;;;;;;;4.38;1.60;;;8.00;80.10;;;;;;4985379;28;20028;-82
2022/01/09 12:33:24;;;;;;;8.00;2.00;;;8.00;80.10;;;;;;4990362;28;20042;-82
2022/01/09 12:36:05;;;;;;;8.32;2.58;;;8.00;79.90;;;;;;4992758;28;20113;-81
2022/01/09 12:38:36;;;;;;;5.45;1.92;;;8.00;79.90;;;;;;4993098;28;20022;-80
2022/01/09 12:41:17;;;;;;;6.32;2.00;;;8.00;80.10;;;;;;4996535;28;20027;-82
2022/01/09 12:43:43;;;;;;;5.72;2.00;;;8.10;80.10;;;;;;4998191;28;20029;-82
2022/01/09 12:46:14;;;;;;;9.20;1.95;;;8.10;79.80;;;;;;4992421;28;20596;-82
2022/01/09 12:48:40;;;;;;;4.82;1.70;;;8.20;79.70;;;;;;4997458;28;20381;-81
2022/01/09 12:51:14;;;;;;;7.70;2.25;;;8.20;79.70;;;;;;5003180;28;20026;-81
2022/01/09 12:53:45;;;;;;;8.55;2.20;;;8.30;79.30;;;;;;5004629;28;20154;-82
2022/01/09 12:56:13;;;;;;;8.68;2.03;;;8.20;79.10;;;;;;5001233;28;20042;-82
2022/01/09 12:58:40;;;;;;;8.05;2.30;;;8.20;79.10;;;;;;5002789;28;20018;-82
2022/01/09 13:01:41;;;;;;;6.15;2.05;;;8.20;79.10;;;;;;4997211;28;20025;-82
2022/01/09 13:04:19;;;;;;;5.53;1.95;;;8.20;79.10;;;;;;4988499;28;20038;-80